sensor_id;sensor_type;location;lat;lon;timestamp;P1;durP1;ratioP1;P2;durP2;ratioP2
26908;SDS011;14477;51.038;4.588;2022-12-11T00:01:42;9.37;;;4.00;;
26908;SDS011;14477;51.038;4.588;2022-12-11T00:04:08;10.23;;;4.13;;
26908;SDS011;14477;51.038;4.588;2022-12-11T00:06:34;10.15;;;4.43;;
26908;SDS011;14477;51.038;4.588;2022-12-11T00:09:00;11.63;;;5.17;;
26908;SDS011;14477;51.038;4.588;2022-12-11T00:11:25;13.32;;;4.65;;
26908;SDS011;14477;51.038;4.588;2022-12-11T00:13:51;10.17;;;3.97;;
26908;SDS011;14477;51.038;4.588;2022-12-11T00:16:17;8.85;;;4.00;;
26908;SDS011;14477;51.038;4.588;2022-12-11T00:18:43;9.02;;;3.75;;
26908;SDS011;14477;51.038;4.588;2022-12-11T00:21:11;11.27;;;4.40;;
26908;SDS011;14477;51.038;4.588;2022-12-11T00:23:38;10.80;;;4.35;;
26908;SDS011;14477;51.038;4.588;2022-12-11T00:26:06;9.35;;;4.25;;
26908;SDS011;14477;51.038;4.588;2022-12-11T00:28:33;8.82;;;3.85;;
26908;SDS011;14477;51.038;4.588;2022-12-11T00:31:06;9.53;;;4.10;;
26908;SDS011;14477;51.038;4.588;2022-12-11T00:33:34;10.00;;;3.90;;
26908;SDS011;14477;51.038;4.588;2022-12-11T00:35:59;9.27;;;4.22;;
26908;SDS011;14477;51.038;4.588;2022-12-11T00:38:25;9.13;;;3.45;;
26908;SDS011;14477;51.038;4.588;2022-12-11T00:40:51;9.00;;;3.57;;
26908;SDS011;14477;51.038;4.588;2022-12-11T00:43:17;8.57;;;4.00;;
26908;SDS011;14477;51.038;4.588;2022-12-11T00:45:44;9.83;;;3.83;;
26908;SDS011;14477;51.038;4.588;2022-12-11T00:48:10;10.07;;;4.03;;
26908;SDS011;14477;51.038;4.588;2022-12-11T00:50:37;9.52;;;3.95;;
26908;SDS011;14477;51.038;4.588;2022-12-11T00:53:03;7.97;;;3.40;;
26908;SDS011;14477;51.038;4.588;2022-12-11T00:55:30;10.93;;;4.43;;
26908;SDS011;14477;51.038;4.588;2022-12-11T00:58:00;8.50;;;3.72;;
26908;SDS011;14477;51.038;4.588;2022-12-11T01:00:25;10.02;;;4.22;;
26908;SDS011;14477;51.038;4.588;2022-12-11T01:02:51;8.83;;;4.07;;
26908;SDS011;14477;51.038;4.588;2022-12-11T01:05:17;10.25;;;4.47;;
26908;SDS011;14477;51.038;4.588;2022-12-11T01:07:43;12.70;;;4.80;;
26908;SDS011;14477;51.038;4.588;2022-12-11T01:10:12;9.70;;;4.00;;
26908;SDS011;14477;51.038;4.588;2022-12-11T01:15:31;9.87;;;4.03;;
26908;SDS011;14477;51.038;4.588;2022-12-11T01:18:08;11.07;;;4.88;;
26908;SDS011;14477;51.038;4.588;2022-12-11T01:20:36;10.02;;;4.53;;
26908;SDS011;14477;51.038;4.588;2022-12-11T01:23:04;9.73;;;4.18;;
26908;SDS011;14477;51.038;4.588;2022-12-11T01:25:31;9.05;;;3.97;;
26908;SDS011;14477;51.038;4.588;2022-12-11T01:27:57;10.57;;;4.27;;
26908;SDS011;14477;51.038;4.588;2022-12-11T01:30:24;9.43;;;4.10;;
26908;SDS011;14477;51.038;4.588;2022-12-11T01:32:50;9.45;;;3.95;;
26908;SDS011;14477;51.038;4.588;2022-12-11T01:35:16;7.70;;;3.83;;
26908;SDS011;14477;51.038;4.588;2022-12-11T01:37:42;9.85;;;3.97;;
26908;SDS011;14477;51.038;4.588;2022-12-11T01:40:10;8.60;;;3.93;;
26908;SDS011;14477;51.038;4.588;2022-12-11T01:42:37;8.43;;;3.67;;
26908;SDS011;14477;51.038;4.588;2022-12-11T01:47:52;8.23;;;3.75;;
26908;SDS011;14477;51.038;4.588;2022-12-11T01:50:22;8.40;;;3.87;;
26908;SDS011;14477;51.038;4.588;2022-12-11T01:52:49;9.00;;;3.80;;
26908;SDS011;14477;51.038;4.588;2022-12-11T01:55:15;9.23;;;4.15;;
26908;SDS011;14477;51.038;4.588;2022-12-11T01:57:42;8.93;;;3.90;;
26908;SDS011;14477;51.038;4.588;2022-12-11T02:00:11;9.40;;;4.30;;
26908;SDS011;14477;51.038;4.588;2022-12-11T02:02:37;8.37;;;3.60;;
26908;SDS011;14477;51.038;4.588;2022-12-11T02:05:04;8.98;;;3.80;;
26908;SDS011;14477;51.038;4.588;2022-12-11T02:07:34;9.15;;;3.80;;
26908;SDS011;14477;51.038;4.588;2022-12-11T02:10:04;10.30;;;4.13;;
26908;SDS011;14477;51.038;4.588;2022-12-11T02:17:48;10.85;;;4.38;;
26908;SDS011;14477;51.038;4.588;2022-12-11T02:20:37;8.32;;;3.85;;
26908;SDS011;14477;51.038;4.588;2022-12-11T02:28:36;8.25;;;3.28;;
26908;SDS011;14477;51.038;4.588;2022-12-11T02:31:09;8.80;;;3.50;;
26908;SDS011;14477;51.038;4.588;2022-12-11T02:34:00;6.97;;;3.30;;
26908;SDS011;14477;51.038;4.588;2022-12-11T02:36:34;6.85;;;3.30;;
26908;SDS011;14477;51.038;4.588;2022-12-11T02:39:02;8.30;;;3.57;;
26908;SDS011;14477;51.038;4.588;2022-12-11T02:41:29;7.95;;;3.67;;
26908;SDS011;14477;51.038;4.588;2022-12-11T02:43:57;7.85;;;3.40;;
26908;SDS011;14477;51.038;4.588;2022-12-11T02:46:26;8.18;;;3.67;;
26908;SDS011;14477;51.038;4.588;2022-12-11T02:48:53;8.43;;;3.83;;
26908;SDS011;14477;51.038;4.588;2022-12-11T02:51:23;9.33;;;3.73;;
26908;SDS011;14477;51.038;4.588;2022-12-11T02:53:53;7.47;;;3.33;;
26908;SDS011;14477;51.038;4.588;2022-12-11T02:56:29;7.85;;;3.50;;
26908;SDS011;14477;51.038;4.588;2022-12-11T02:59:11;7.07;;;3.22;;
26908;SDS011;14477;51.038;4.588;2022-12-11T03:01:40;6.97;;;3.25;;
26908;SDS011;14477;51.038;4.588;2022-12-11T03:04:06;7.83;;;3.50;;
26908;SDS011;14477;51.038;4.588;2022-12-11T03:06:35;8.07;;;3.65;;
26908;SDS011;14477;51.038;4.588;2022-12-11T03:09:08;7.45;;;3.60;;
26908;SDS011;14477;51.038;4.588;2022-12-11T03:11:34;8.55;;;3.22;;
26908;SDS011;14477;51.038;4.588;2022-12-11T03:14:00;7.57;;;3.53;;
26908;SDS011;14477;51.038;4.588;2022-12-11T03:19:05;7.88;;;3.38;;
26908;SDS011;14477;51.038;4.588;2022-12-11T03:21:52;8.77;;;4.20;;
26908;SDS011;14477;51.038;4.588;2022-12-11T03:24:33;9.40;;;3.73;;
26908;SDS011;14477;51.038;4.588;2022-12-11T03:30:20;9.43;;;4.05;;
26908;SDS011;14477;51.038;4.588;2022-12-11T03:32:52;7.70;;;3.08;;
26908;SDS011;14477;51.038;4.588;2022-12-11T03:35:28;10.18;;;4.07;;
26908;SDS011;14477;51.038;4.588;2022-12-11T03:38:07;7.43;;;3.33;;
26908;SDS011;14477;51.038;4.588;2022-12-11T03:40:48;8.55;;;3.30;;
26908;SDS011;14477;51.038;4.588;2022-12-11T03:43:17;9.38;;;3.33;;
26908;SDS011;14477;51.038;4.588;2022-12-11T03:45:45;9.73;;;3.70;;
26908;SDS011;14477;51.038;4.588;2022-12-11T03:48:13;9.38;;;3.80;;
26908;SDS011;14477;51.038;4.588;2022-12-11T03:50:41;8.90;;;3.40;;
26908;SDS011;14477;51.038;4.588;2022-12-11T03:53:07;8.15;;;3.60;;
26908;SDS011;14477;51.038;4.588;2022-12-11T03:55:34;8.93;;;3.65;;
26908;SDS011;14477;51.038;4.588;2022-12-11T03:58:01;8.43;;;3.45;;
26908;SDS011;14477;51.038;4.588;2022-12-11T04:00:27;7.97;;;3.23;;
26908;SDS011;14477;51.038;4.588;2022-12-11T04:02:54;9.63;;;3.60;;
26908;SDS011;14477;51.038;4.588;2022-12-11T04:05:38;10.35;;;3.85;;
26908;SDS011;14477;51.038;4.588;2022-12-11T04:08:08;9.43;;;3.70;;
26908;SDS011;14477;51.038;4.588;2022-12-11T04:10:34;10.73;;;4.05;;
26908;SDS011;14477;51.038;4.588;2022-12-11T04:13:00;8.47;;;3.50;;
26908;SDS011;14477;51.038;4.588;2022-12-11T04:15:25;10.45;;;4.00;;
26908;SDS011;14477;51.038;4.588;2022-12-11T04:17:51;9.60;;;3.93;;
26908;SDS011;14477;51.038;4.588;2022-12-11T04:20:35;9.43;;;4.03;;
26908;SDS011;14477;51.038;4.588;2022-12-11T04:23:19;10.68;;;4.43;;
26908;SDS011;14477;51.038;4.588;2022-12-11T04:26:04;9.50;;;3.60;;
26908;SDS011;14477;51.038;4.588;2022-12-11T04:28:32;8.82;;;3.63;;
26908;SDS011;14477;51.038;4.588;2022-12-11T04:30:58;10.02;;;4.22;;
26908;SDS011;14477;51.038;4.588;2022-12-11T04:33:24;10.20;;;4.30;;
26908;SDS011;14477;51.038;4.588;2022-12-11T04:35:50;9.30;;;4.07;;
26908;SDS011;14477;51.038;4.588;2022-12-11T04:38:15;9.15;;;4.07;;
26908;SDS011;14477;51.038;4.588;2022-12-11T04:40:41;8.80;;;3.90;;
26908;SDS011;14477;51.038;4.588;2022-12-11T04:43:07;11.48;;;4.50;;
26908;SDS011;14477;51.038;4.588;2022-12-11T04:45:33;8.57;;;3.47;;
26908;SDS011;14477;51.038;4.588;2022-12-11T04:47:58;9.23;;;4.13;;
26908;SDS011;14477;51.038;4.588;2022-12-11T04:50:24;9.80;;;4.13;;
26908;SDS011;14477;51.038;4.588;2022-12-11T04:52:52;10.27;;;4.18;;
26908;SDS011;14477;51.038;4.588;2022-12-11T04:55:37;10.23;;;4.13;;
26908;SDS011;14477;51.038;4.588;2022-12-11T04:58:03;10.50;;;4.22;;
26908;SDS011;14477;51.038;4.588;2022-12-11T05:00:29;12.03;;;4.37;;
26908;SDS011;14477;51.038;4.588;2022-12-11T05:02:55;12.90;;;4.47;;
26908;SDS011;14477;51.038;4.588;2022-12-11T05:05:20;12.20;;;4.75;;
26908;SDS011;14477;51.038;4.588;2022-12-11T05:07:46;12.63;;;5.37;;
26908;SDS011;14477;51.038;4.588;2022-12-11T05:10:11;12.32;;;4.75;;
26908;SDS011;14477;51.038;4.588;2022-12-11T05:12:37;10.90;;;4.17;;
26908;SDS011;14477;51.038;4.588;2022-12-11T05:15:03;13.02;;;5.15;;
26908;SDS011;14477;51.038;4.588;2022-12-11T05:17:29;9.60;;;4.00;;
26908;SDS011;14477;51.038;4.588;2022-12-11T05:19:55;10.30;;;4.23;;
26908;SDS011;14477;51.038;4.588;2022-12-11T05:22:21;12.15;;;4.60;;
26908;SDS011;14477;51.038;4.588;2022-12-11T05:24:46;10.83;;;4.40;;
26908;SDS011;14477;51.038;4.588;2022-12-11T05:27:12;14.17;;;5.00;;
26908;SDS011;14477;51.038;4.588;2022-12-11T05:29:38;15.27;;;5.15;;
26908;SDS011;14477;51.038;4.588;2022-12-11T05:32:04;11.98;;;4.78;;
26908;SDS011;14477;51.038;4.588;2022-12-11T05:34:29;13.23;;;5.07;;
26908;SDS011;14477;51.038;4.588;2022-12-11T05:36:55;12.15;;;4.82;;
26908;SDS011;14477;51.038;4.588;2022-12-11T05:39:21;12.65;;;4.68;;
26908;SDS011;14477;51.038;4.588;2022-12-11T05:41:47;11.27;;;4.00;;
26908;SDS011;14477;51.038;4.588;2022-12-11T05:44:13;13.53;;;5.10;;
26908;SDS011;14477;51.038;4.588;2022-12-11T05:46:38;11.80;;;4.60;;
26908;SDS011;14477;51.038;4.588;2022-12-11T05:49:04;11.38;;;4.30;;
26908;SDS011;14477;51.038;4.588;2022-12-11T05:51:31;9.90;;;3.97;;
26908;SDS011;14477;51.038;4.588;2022-12-11T05:54:00;12.27;;;4.85;;
26908;SDS011;14477;51.038;4.588;2022-12-11T05:56:28;11.70;;;4.68;;
26908;SDS011;14477;51.038;4.588;2022-12-11T05:58:56;12.25;;;4.40;;
26908;SDS011;14477;51.038;4.588;2022-12-11T06:01:25;11.73;;;4.25;;
26908;SDS011;14477;51.038;4.588;2022-12-11T06:03:56;12.03;;;4.63;;
26908;SDS011;14477;51.038;4.588;2022-12-11T06:06:22;10.95;;;4.25;;
26908;SDS011;14477;51.038;4.588;2022-12-11T06:08:49;12.20;;;4.20;;
26908;SDS011;14477;51.038;4.588;2022-12-11T06:11:15;16.38;;;4.68;;
26908;SDS011;14477;51.038;4.588;2022-12-11T06:13:41;13.87;;;4.83;;
26908;SDS011;14477;51.038;4.588;2022-12-11T06:16:07;9.95;;;4.10;;
26908;SDS011;14477;51.038;4.588;2022-12-11T06:18:38;11.10;;;4.35;;
26908;SDS011;14477;51.038;4.588;2022-12-11T06:21:09;11.63;;;4.40;;
26908;SDS011;14477;51.038;4.588;2022-12-11T06:23:37;12.55;;;5.10;;
26908;SDS011;14477;51.038;4.588;2022-12-11T06:26:03;11.90;;;4.45;;
26908;SDS011;14477;51.038;4.588;2022-12-11T06:28:29;14.17;;;4.70;;
26908;SDS011;14477;51.038;4.588;2022-12-11T06:30:57;14.00;;;4.50;;
26908;SDS011;14477;51.038;4.588;2022-12-11T06:33:23;10.63;;;4.03;;
26908;SDS011;14477;51.038;4.588;2022-12-11T06:35:49;11.63;;;4.13;;
26908;SDS011;14477;51.038;4.588;2022-12-11T06:38:16;11.13;;;4.18;;
26908;SDS011;14477;51.038;4.588;2022-12-11T06:40:42;11.23;;;4.28;;
26908;SDS011;14477;51.038;4.588;2022-12-11T06:43:08;11.88;;;4.30;;
26908;SDS011;14477;51.038;4.588;2022-12-11T06:45:33;10.00;;;3.73;;
26908;SDS011;14477;51.038;4.588;2022-12-11T06:48:00;10.00;;;3.95;;
26908;SDS011;14477;51.038;4.588;2022-12-11T06:50:26;11.95;;;4.43;;
26908;SDS011;14477;51.038;4.588;2022-12-11T06:52:52;11.47;;;4.27;;
26908;SDS011;14477;51.038;4.588;2022-12-11T06:55:19;14.52;;;4.63;;
26908;SDS011;14477;51.038;4.588;2022-12-11T06:57:45;13.00;;;4.63;;
26908;SDS011;14477;51.038;4.588;2022-12-11T07:00:11;13.07;;;4.90;;
26908;SDS011;14477;51.038;4.588;2022-12-11T07:02:37;9.77;;;4.28;;
26908;SDS011;14477;51.038;4.588;2022-12-11T07:05:02;10.47;;;4.17;;
26908;SDS011;14477;51.038;4.588;2022-12-11T07:07:29;13.68;;;5.03;;
26908;SDS011;14477;51.038;4.588;2022-12-11T07:09:54;12.57;;;4.90;;
26908;SDS011;14477;51.038;4.588;2022-12-11T07:12:20;10.73;;;4.23;;
26908;SDS011;14477;51.038;4.588;2022-12-11T07:14:46;12.15;;;4.18;;
26908;SDS011;14477;51.038;4.588;2022-12-11T07:17:12;12.83;;;4.63;;
26908;SDS011;14477;51.038;4.588;2022-12-11T07:19:38;11.13;;;4.55;;
26908;SDS011;14477;51.038;4.588;2022-12-11T07:22:04;11.50;;;4.65;;
26908;SDS011;14477;51.038;4.588;2022-12-11T07:24:30;11.70;;;4.53;;
26908;SDS011;14477;51.038;4.588;2022-12-11T07:26:56;13.30;;;5.17;;
26908;SDS011;14477;51.038;4.588;2022-12-11T07:29:22;12.00;;;4.75;;
26908;SDS011;14477;51.038;4.588;2022-12-11T07:31:48;11.73;;;4.80;;
26908;SDS011;14477;51.038;4.588;2022-12-11T07:34:14;12.40;;;4.90;;
26908;SDS011;14477;51.038;4.588;2022-12-11T07:36:40;14.05;;;4.97;;
26908;SDS011;14477;51.038;4.588;2022-12-11T07:39:09;11.85;;;4.38;;
26908;SDS011;14477;51.038;4.588;2022-12-11T07:41:36;11.33;;;4.00;;
26908;SDS011;14477;51.038;4.588;2022-12-11T07:44:02;11.98;;;4.30;;
26908;SDS011;14477;51.038;4.588;2022-12-11T07:46:29;12.05;;;4.97;;
26908;SDS011;14477;51.038;4.588;2022-12-11T07:48:56;11.75;;;4.68;;
26908;SDS011;14477;51.038;4.588;2022-12-11T07:51:23;13.70;;;5.63;;
26908;SDS011;14477;51.038;4.588;2022-12-11T07:53:54;13.23;;;5.20;;
26908;SDS011;14477;51.038;4.588;2022-12-11T07:56:22;15.98;;;5.88;;
26908;SDS011;14477;51.038;4.588;2022-12-11T07:58:48;14.52;;;5.00;;
26908;SDS011;14477;51.038;4.588;2022-12-11T08:01:15;10.80;;;4.85;;
26908;SDS011;14477;51.038;4.588;2022-12-11T08:03:46;13.13;;;5.20;;
26908;SDS011;14477;51.038;4.588;2022-12-11T08:06:12;12.82;;;5.32;;
26908;SDS011;14477;51.038;4.588;2022-12-11T08:08:38;13.65;;;5.38;;
26908;SDS011;14477;51.038;4.588;2022-12-11T08:11:06;12.27;;;4.68;;
26908;SDS011;14477;51.038;4.588;2022-12-11T08:13:33;14.93;;;5.87;;
26908;SDS011;14477;51.038;4.588;2022-12-11T08:16:07;13.82;;;5.45;;
26908;SDS011;14477;51.038;4.588;2022-12-11T08:18:34;13.00;;;5.43;;
26908;SDS011;14477;51.038;4.588;2022-12-11T08:21:12;12.73;;;5.00;;
26908;SDS011;14477;51.038;4.588;2022-12-11T08:23:39;13.45;;;5.38;;
26908;SDS011;14477;51.038;4.588;2022-12-11T08:26:06;13.23;;;5.10;;
26908;SDS011;14477;51.038;4.588;2022-12-11T08:28:33;12.77;;;4.93;;
26908;SDS011;14477;51.038;4.588;2022-12-11T08:30:59;12.40;;;5.03;;
26908;SDS011;14477;51.038;4.588;2022-12-11T08:33:27;14.48;;;5.38;;
26908;SDS011;14477;51.038;4.588;2022-12-11T08:35:53;12.27;;;4.80;;
26908;SDS011;14477;51.038;4.588;2022-12-11T08:38:19;13.02;;;4.95;;
26908;SDS011;14477;51.038;4.588;2022-12-11T08:40:44;13.00;;;5.20;;
26908;SDS011;14477;51.038;4.588;2022-12-11T08:43:10;12.43;;;4.72;;
26908;SDS011;14477;51.038;4.588;2022-12-11T08:45:36;11.90;;;4.90;;
26908;SDS011;14477;51.038;4.588;2022-12-11T08:48:03;15.40;;;5.70;;
26908;SDS011;14477;51.038;4.588;2022-12-11T08:50:29;12.75;;;5.30;;
26908;SDS011;14477;51.038;4.588;2022-12-11T08:52:56;14.70;;;5.97;;
26908;SDS011;14477;51.038;4.588;2022-12-11T08:55:22;11.80;;;4.57;;
26908;SDS011;14477;51.038;4.588;2022-12-11T08:57:48;11.25;;;5.00;;
26908;SDS011;14477;51.038;4.588;2022-12-11T09:00:14;13.70;;;5.03;;
26908;SDS011;14477;51.038;4.588;2022-12-11T09:02:41;13.20;;;5.28;;
26908;SDS011;14477;51.038;4.588;2022-12-11T09:05:06;10.37;;;3.93;;
26908;SDS011;14477;51.038;4.588;2022-12-11T09:07:34;11.20;;;4.80;;
26908;SDS011;14477;51.038;4.588;2022-12-11T09:10:00;13.45;;;5.45;;
26908;SDS011;14477;51.038;4.588;2022-12-11T09:12:28;15.30;;;6.47;;
26908;SDS011;14477;51.038;4.588;2022-12-11T09:14:53;14.67;;;5.57;;
26908;SDS011;14477;51.038;4.588;2022-12-11T09:17:19;12.90;;;5.27;;
26908;SDS011;14477;51.038;4.588;2022-12-11T09:19:45;12.73;;;5.03;;
26908;SDS011;14477;51.038;4.588;2022-12-11T09:22:10;15.13;;;5.70;;
26908;SDS011;14477;51.038;4.588;2022-12-11T09:24:37;13.90;;;5.68;;
26908;SDS011;14477;51.038;4.588;2022-12-11T09:27:03;13.57;;;5.38;;
26908;SDS011;14477;51.038;4.588;2022-12-11T09:29:29;12.52;;;4.97;;
26908;SDS011;14477;51.038;4.588;2022-12-11T09:31:55;15.57;;;5.55;;
26908;SDS011;14477;51.038;4.588;2022-12-11T09:34:21;11.63;;;4.33;;
26908;SDS011;14477;51.038;4.588;2022-12-11T09:36:47;14.57;;;5.60;;
26908;SDS011;14477;51.038;4.588;2022-12-11T09:39:14;13.20;;;5.28;;
26908;SDS011;14477;51.038;4.588;2022-12-11T09:46:35;12.55;;;4.82;;
26908;SDS011;14477;51.038;4.588;2022-12-11T09:49:03;11.48;;;4.97;;
26908;SDS011;14477;51.038;4.588;2022-12-11T09:51:43;13.63;;;4.77;;
26908;SDS011;14477;51.038;4.588;2022-12-11T09:54:14;12.93;;;5.45;;
26908;SDS011;14477;51.038;4.588;2022-12-11T10:00:00;12.50;;;4.38;;
26908;SDS011;14477;51.038;4.588;2022-12-11T10:05:49;13.48;;;5.30;;
26908;SDS011;14477;51.038;4.588;2022-12-11T10:11:24;12.75;;;5.30;;
26908;SDS011;14477;51.038;4.588;2022-12-11T10:17:19;12.63;;;5.17;;
26908;SDS011;14477;51.038;4.588;2022-12-11T10:19:51;16.23;;;5.45;;
26908;SDS011;14477;51.038;4.588;2022-12-11T10:22:26;15.25;;;5.55;;
26908;SDS011;14477;51.038;4.588;2022-12-11T10:24:56;15.55;;;6.53;;
26908;SDS011;14477;51.038;4.588;2022-12-11T10:27:33;12.75;;;5.43;;
26908;SDS011;14477;51.038;4.588;2022-12-11T10:30:12;12.33;;;5.07;;
26908;SDS011;14477;51.038;4.588;2022-12-11T10:32:46;13.50;;;5.40;;
26908;SDS011;14477;51.038;4.588;2022-12-11T10:35:26;15.15;;;5.80;;
26908;SDS011;14477;51.038;4.588;2022-12-11T10:40:39;15.20;;;6.13;;
26908;SDS011;14477;51.038;4.588;2022-12-11T10:43:11;13.93;;;5.17;;
26908;SDS011;14477;51.038;4.588;2022-12-11T10:45:36;11.18;;;4.28;;
26908;SDS011;14477;51.038;4.588;2022-12-11T10:48:03;13.13;;;5.63;;
26908;SDS011;14477;51.038;4.588;2022-12-11T10:50:30;15.60;;;5.95;;
26908;SDS011;14477;51.038;4.588;2022-12-11T10:52:57;10.68;;;4.90;;
26908;SDS011;14477;51.038;4.588;2022-12-11T10:55:24;14.10;;;5.32;;
26908;SDS011;14477;51.038;4.588;2022-12-11T10:58:02;14.33;;;5.87;;
26908;SDS011;14477;51.038;4.588;2022-12-11T11:00:30;12.93;;;4.85;;
26908;SDS011;14477;51.038;4.588;2022-12-11T11:03:16;12.40;;;5.05;;
26908;SDS011;14477;51.038;4.588;2022-12-11T11:05:48;11.55;;;4.55;;
26908;SDS011;14477;51.038;4.588;2022-12-11T11:08:16;11.50;;;4.68;;
26908;SDS011;14477;51.038;4.588;2022-12-11T11:10:50;11.93;;;4.87;;
26908;SDS011;14477;51.038;4.588;2022-12-11T11:13:25;16.05;;;5.80;;
26908;SDS011;14477;51.038;4.588;2022-12-11T11:16:03;12.82;;;5.10;;
26908;SDS011;14477;51.038;4.588;2022-12-11T11:18:36;14.55;;;5.20;;
26908;SDS011;14477;51.038;4.588;2022-12-11T11:21:04;14.18;;;5.35;;
26908;SDS011;14477;51.038;4.588;2022-12-11T11:23:30;11.33;;;4.60;;
26908;SDS011;14477;51.038;4.588;2022-12-11T11:25:56;11.82;;;4.60;;
26908;SDS011;14477;51.038;4.588;2022-12-11T11:28:34;11.45;;;4.68;;
26908;SDS011;14477;51.038;4.588;2022-12-11T11:31:07;13.00;;;5.15;;
26908;SDS011;14477;51.038;4.588;2022-12-11T11:36:25;9.73;;;4.00;;
26908;SDS011;14477;51.038;4.588;2022-12-11T11:44:29;11.65;;;4.43;;
26908;SDS011;14477;51.038;4.588;2022-12-11T11:47:04;11.37;;;4.37;;
26908;SDS011;14477;51.038;4.588;2022-12-11T11:50:05;12.52;;;4.68;;
26908;SDS011;14477;51.038;4.588;2022-12-11T11:52:54;11.27;;;4.68;;
26908;SDS011;14477;51.038;4.588;2022-12-11T11:58:49;11.80;;;5.45;;
26908;SDS011;14477;51.038;4.588;2022-12-11T12:01:20;10.70;;;4.13;;
26908;SDS011;14477;51.038;4.588;2022-12-11T12:03:46;8.02;;;3.53;;
26908;SDS011;14477;51.038;4.588;2022-12-11T12:14:29;9.13;;;4.13;;
26908;SDS011;14477;51.038;4.588;2022-12-11T12:17:34;9.60;;;3.88;;
26908;SDS011;14477;51.038;4.588;2022-12-11T12:20:18;7.60;;;3.13;;
26908;SDS011;14477;51.038;4.588;2022-12-11T12:25:40;10.30;;;4.43;;
26908;SDS011;14477;51.038;4.588;2022-12-11T12:28:16;9.95;;;4.35;;
26908;SDS011;14477;51.038;4.588;2022-12-11T12:31:12;10.50;;;4.50;;
26908;SDS011;14477;51.038;4.588;2022-12-11T12:36:51;8.82;;;4.25;;
26908;SDS011;14477;51.038;4.588;2022-12-11T12:45:50;8.55;;;3.83;;
26908;SDS011;14477;51.038;4.588;2022-12-11T12:48:18;10.63;;;3.87;;
26908;SDS011;14477;51.038;4.588;2022-12-11T12:50:47;9.15;;;4.25;;
26908;SDS011;14477;51.038;4.588;2022-12-11T12:53:23;7.45;;;3.47;;
26908;SDS011;14477;51.038;4.588;2022-12-11T12:55:51;9.13;;;4.07;;
26908;SDS011;14477;51.038;4.588;2022-12-11T12:58:25;9.18;;;4.20;;
26908;SDS011;14477;51.038;4.588;2022-12-11T13:00:54;8.33;;;4.13;;
26908;SDS011;14477;51.038;4.588;2022-12-11T13:03:31;9.68;;;4.10;;
26908;SDS011;14477;51.038;4.588;2022-12-11T13:06:27;10.43;;;4.32;;
26908;SDS011;14477;51.038;4.588;2022-12-11T13:09:23;9.45;;;3.97;;
26908;SDS011;14477;51.038;4.588;2022-12-11T13:11:52;8.93;;;3.70;;
26908;SDS011;14477;51.038;4.588;2022-12-11T13:14:23;9.40;;;3.70;;
26908;SDS011;14477;51.038;4.588;2022-12-11T13:17:03;8.85;;;4.00;;
26908;SDS011;14477;51.038;4.588;2022-12-11T13:19:32;10.00;;;4.43;;
26908;SDS011;14477;51.038;4.588;2022-12-11T13:22:03;9.30;;;3.92;;
26908;SDS011;14477;51.038;4.588;2022-12-11T13:24:47;8.90;;;4.07;;
26908;SDS011;14477;51.038;4.588;2022-12-11T13:27:49;9.17;;;3.87;;
26908;SDS011;14477;51.038;4.588;2022-12-11T13:30:26;7.82;;;3.67;;
26908;SDS011;14477;51.038;4.588;2022-12-11T13:33:05;9.90;;;3.90;;
26908;SDS011;14477;51.038;4.588;2022-12-11T13:35:39;9.65;;;3.70;;
26908;SDS011;14477;51.038;4.588;2022-12-11T13:38:07;10.95;;;4.20;;
26908;SDS011;14477;51.038;4.588;2022-12-11T13:40:48;9.27;;;3.83;;
26908;SDS011;14477;51.038;4.588;2022-12-11T13:43:25;9.27;;;3.65;;
26908;SDS011;14477;51.038;4.588;2022-12-11T13:45:57;10.18;;;4.43;;
26908;SDS011;14477;51.038;4.588;2022-12-11T13:48:32;9.30;;;3.78;;
26908;SDS011;14477;51.038;4.588;2022-12-11T13:51:02;8.40;;;3.70;;
26908;SDS011;14477;51.038;4.588;2022-12-11T13:53:29;11.67;;;4.63;;
26908;SDS011;14477;51.038;4.588;2022-12-11T13:55:56;9.10;;;3.85;;
26908;SDS011;14477;51.038;4.588;2022-12-11T13:58:23;10.55;;;4.05;;
26908;SDS011;14477;51.038;4.588;2022-12-11T14:01:00;10.63;;;4.25;;
26908;SDS011;14477;51.038;4.588;2022-12-11T14:06:19;8.17;;;3.80;;
26908;SDS011;14477;51.038;4.588;2022-12-11T14:08:47;11.93;;;4.15;;
26908;SDS011;14477;51.038;4.588;2022-12-11T14:11:24;11.00;;;4.18;;
26908;SDS011;14477;51.038;4.588;2022-12-11T14:13:54;10.50;;;3.83;;
26908;SDS011;14477;51.038;4.588;2022-12-11T14:16:22;10.48;;;3.80;;
26908;SDS011;14477;51.038;4.588;2022-12-11T14:18:50;9.30;;;3.70;;
26908;SDS011;14477;51.038;4.588;2022-12-11T14:21:24;9.23;;;3.33;;
26908;SDS011;14477;51.038;4.588;2022-12-11T14:23:51;9.50;;;3.90;;
26908;SDS011;14477;51.038;4.588;2022-12-11T14:26:36;8.30;;;3.85;;
26908;SDS011;14477;51.038;4.588;2022-12-11T14:29:03;9.65;;;3.80;;
26908;SDS011;14477;51.038;4.588;2022-12-11T14:31:40;9.63;;;3.90;;
26908;SDS011;14477;51.038;4.588;2022-12-11T14:34:12;10.40;;;4.20;;
26908;SDS011;14477;51.038;4.588;2022-12-11T14:36:43;11.05;;;4.43;;
26908;SDS011;14477;51.038;4.588;2022-12-11T14:39:12;9.98;;;3.85;;
26908;SDS011;14477;51.038;4.588;2022-12-11T14:41:41;10.27;;;4.25;;
26908;SDS011;14477;51.038;4.588;2022-12-11T14:44:14;11.37;;;4.30;;
26908;SDS011;14477;51.038;4.588;2022-12-11T14:46:45;9.68;;;4.25;;
26908;SDS011;14477;51.038;4.588;2022-12-11T14:51:50;10.23;;;4.35;;
26908;SDS011;14477;51.038;4.588;2022-12-11T14:54:37;11.63;;;4.63;;
26908;SDS011;14477;51.038;4.588;2022-12-11T14:57:06;12.30;;;5.33;;
26908;SDS011;14477;51.038;4.588;2022-12-11T14:59:40;11.77;;;4.78;;
26908;SDS011;14477;51.038;4.588;2022-12-11T15:05:16;9.20;;;4.00;;
26908;SDS011;14477;51.038;4.588;2022-12-11T15:07:54;9.45;;;4.13;;
26908;SDS011;14477;51.038;4.588;2022-12-11T15:10:35;11.93;;;4.53;;
26908;SDS011;14477;51.038;4.588;2022-12-11T15:13:06;11.43;;;4.45;;
26908;SDS011;14477;51.038;4.588;2022-12-11T15:15:43;12.68;;;4.75;;
26908;SDS011;14477;51.038;4.588;2022-12-11T15:18:27;10.20;;;4.07;;
26908;SDS011;14477;51.038;4.588;2022-12-11T15:20:56;10.77;;;3.88;;
26908;SDS011;14477;51.038;4.588;2022-12-11T15:23:27;10.07;;;4.13;;
26908;SDS011;14477;51.038;4.588;2022-12-11T15:25:57;10.45;;;4.07;;
26908;SDS011;14477;51.038;4.588;2022-12-11T15:28:27;12.15;;;4.50;;
26908;SDS011;14477;51.038;4.588;2022-12-11T15:30:58;12.27;;;4.57;;
26908;SDS011;14477;51.038;4.588;2022-12-11T15:33:26;10.52;;;4.38;;
26908;SDS011;14477;51.038;4.588;2022-12-11T15:38:30;11.45;;;4.45;;
26908;SDS011;14477;51.038;4.588;2022-12-11T15:40:56;9.13;;;3.90;;
26908;SDS011;14477;51.038;4.588;2022-12-11T15:43:23;10.00;;;4.53;;
26908;SDS011;14477;51.038;4.588;2022-12-11T15:45:49;10.33;;;4.43;;
26908;SDS011;14477;51.038;4.588;2022-12-11T15:48:14;10.32;;;4.57;;
26908;SDS011;14477;51.038;4.588;2022-12-11T15:50:40;10.80;;;4.43;;
26908;SDS011;14477;51.038;4.588;2022-12-11T15:53:06;13.00;;;5.10;;
26908;SDS011;14477;51.038;4.588;2022-12-11T15:55:31;12.50;;;4.90;;
26908;SDS011;14477;51.038;4.588;2022-12-11T15:58:03;11.85;;;5.03;;
26908;SDS011;14477;51.038;4.588;2022-12-11T16:00:31;12.43;;;4.90;;
26908;SDS011;14477;51.038;4.588;2022-12-11T16:02:57;10.55;;;5.13;;
26908;SDS011;14477;51.038;4.588;2022-12-11T16:05:23;10.77;;;4.50;;
26908;SDS011;14477;51.038;4.588;2022-12-11T16:07:50;11.68;;;4.88;;
26908;SDS011;14477;51.038;4.588;2022-12-11T16:10:23;12.10;;;4.88;;
26908;SDS011;14477;51.038;4.588;2022-12-11T16:12:50;11.85;;;5.18;;
26908;SDS011;14477;51.038;4.588;2022-12-11T16:15:16;13.40;;;4.93;;
26908;SDS011;14477;51.038;4.588;2022-12-11T16:17:41;10.73;;;4.97;;
26908;SDS011;14477;51.038;4.588;2022-12-11T16:20:08;11.43;;;5.00;;